Time;durP1;ratioP1;P1;durP2;ratioP2;P2;SDS_P1;SDS_P2;PMS_P1;PMS_P2;Temp;Humidity;BMP_temperature;BMP_pressure;BME280_temperature;BME280_humidity;BME280_pressure;Samples;Min_cycle;Max_cycle;Signal;HPM_P1;HPM_P2
2022/05/10 00:01:46;;;;;;;11.87;8.43;;;;;;;-145.69;100.00;72130.75;5074576;28;20195;-75
2022/05/10 00:04:14;;;;;;;17.07;8.73;;;;;;;-145.69;100.00;72138.72;5074848;28;20603;-74
2022/05/10 00:06:45;;;;;;;16.93;9.00;;;;;;;-145.69;100.00;72146.69;5074507;28;20234;-75
2022/05/10 00:09:13;;;;;;;13.47;9.40;;;;;;;-145.69;100.00;72146.69;5075028;28;20195;-75
2022/05/10 00:11:40;;;;;;;15.63;9.37;;;;;;;-145.69;100.00;72182.50;5074305;28;20544;-74
2022/05/10 00:14:07;;;;;;;12.03;8.57;;;;;;;-145.69;100.00;72204.38;5074777;28;20691;-75
2022/05/10 00:16:40;;;;;;;14.60;9.30;;;;;;;-145.69;100.00;72222.31;5074560;28;20206;-75
2022/05/10 00:19:07;;;;;;;14.20;9.63;;;;;;;-145.69;100.00;72220.31;5074465;28;20203;-75
2022/05/10 00:21:33;;;;;;;13.17;9.40;;;;;;;-145.69;100.00;72226.28;5074720;28;20199;-75
2022/05/10 00:24:01;;;;;;;12.87;9.27;;;;;;;-145.69;100.00;72220.31;5074549;28;20206;-75
2022/05/10 00:26:27;;;;;;;19.70;9.60;;;;;;;-145.69;100.00;72222.31;5074469;28;20278;-75
2022/05/10 00:28:54;;;;;;;16.20;11.43;;;;;;;-145.69;100.00;72222.31;5072560;28;20434;-75
2022/05/10 00:31:20;;;;;;;16.83;11.07;;;;;;;-145.69;100.00;72220.31;5074334;28;20203;-75
2022/05/10 00:33:47;;;;;;;14.50;10.13;;;;;;;-145.69;100.00;72208.38;5073861;28;20214;-74
2022/05/10 00:36:23;;;;;;;18.00;10.63;;;;;;;-145.69;100.00;72198.41;5074363;28;20207;-74
2022/05/10 00:38:50;;;;;;;13.77;9.90;;;;;;;-145.69;100.00;72190.47;5074449;28;20210;-75
2022/05/10 00:41:24;;;;;;;16.07;10.03;;;;;;;-145.69;100.00;72170.56;5074113;28;20623;-75
2022/05/10 00:43:56;;;;;;;17.90;10.13;;;;;;;-145.69;100.00;72166.56;5074351;28;20206;-74
2022/05/10 00:46:25;;;;;;;15.37;10.33;;;;;;;-145.69;100.00;72178.53;5073953;28;20714;-74
2022/05/10 00:48:56;;;;;;;16.40;10.13;;;;;;;-145.69;100.00;72178.53;5073411;28;20226;-74
2022/05/10 00:51:32;;;;;;;14.00;10.00;;;;;;;-145.69;100.00;72188.47;5073871;28;20198;-74
2022/05/10 00:54:04;;;;;;;15.53;10.10;;;;;;;-145.69;100.00;72184.50;5074061;28;20194;-74
2022/05/10 00:56:38;;;;;;;15.70;10.33;;;;;;;-145.69;100.00;72182.50;5074044;28;20199;-75
2022/05/10 00:59:13;;;;;;;15.77;10.80;;;;;;;-145.69;100.00;72170.56;5073668;28;20726;-75
2022/05/10 01:01:43;;;;;;;18.73;10.03;;;;;;;-145.69;100.00;72184.50;5073211;28;20190;-75
2022/05/10 01:04:18;;;;;;;15.70;10.27;;;;;;;-145.69;100.00;72174.53;5073744;28;20240;-74
2022/05/10 01:06:51;;;;;;;15.90;9.77;;;;;;;-145.69;100.00;72162.59;5073772;28;20234;-75
2022/05/10 01:09:25;;;;;;;17.50;10.83;;;;;;;-145.69;100.00;72174.53;5073927;28;20297;-75
2022/05/10 01:12:00;;;;;;;17.17;10.70;;;;;;;-145.69;100.00;72188.47;5073606;28;20202;-75
2022/05/10 01:14:31;;;;;;;19.05;12.27;;;;;;;-145.69;100.00;72192.44;5072969;28;20908;-75
2022/05/10 01:16:58;;;;;;;16.97;10.87;;;;;;;-145.69;100.00;72198.41;5073680;28;20541;-75
2022/05/10 01:19:24;;;;;;;15.67;11.10;;;;;;;-145.69;100.00;72198.41;5073468;28;20203;-74
2022/05/10 01:22:06;;;;;;;16.70;11.10;;;;;;;-145.69;100.00;72194.44;5073534;28;20198;-75
2022/05/10 01:24:45;;;;;;;19.70;11.20;;;;;;;-145.69;100.00;72198.41;5073493;28;20199;-75
2022/05/10 01:27:25;;;;;;;16.57;11.07;;;;;;;-145.69;100.00;72192.44;5073583;28;20256;-75
2022/05/10 01:29:58;;;;;;;22.67;11.17;;;;;;;-145.69;100.00;72186.47;5073551;28;20296;-75
2022/05/10 01:35:20;;;;;;;16.80;11.40;;;;;;;-145.69;100.00;72186.47;5053220;28;20202;-75
2022/05/10 01:37:52;;;;;;;21.80;12.77;;;;;;;-145.69;100.00;72166.56;5053265;28;20203;-75
2022/05/10 01:40:29;;;;;;;23.87;12.93;;;;;;;-145.69;100.00;72182.50;5053103;28;20211;-75
2022/05/10 01:43:02;;;;;;;21.50;12.17;;;;;;;-145.69;100.00;72194.44;5053306;28;20249;-74
2022/05/10 01:45:36;;;;;;;18.23;11.53;;;;;;;-145.69;100.00;72206.38;5052604;28;20235;-74
2022/05/10 01:48:05;;;;;;;20.38;13.23;;;;;;;-145.69;100.00;72202.41;5052737;28;20435;-74
2022/05/10 01:50:39;;;;;;;20.87;11.87;;;;;;;-145.69;100.00;72198.41;5069913;28;20230;-74
2022/05/10 01:53:08;;;;;;;20.33;12.60;;;;;;;-145.69;100.00;72188.47;5072779;28;20198;-74
2022/05/10 01:55:37;;;;;;;21.30;12.63;;;;;;;-145.69;100.00;72186.47;5072943;28;20240;-74
2022/05/10 01:58:09;;;;;;;17.93;11.93;;;;;;;-145.69;100.00;72180.50;5072973;28;20225;-74
2022/05/10 02:00:38;;;;;;;19.37;12.47;;;;;;;-145.69;100.00;72178.53;5072719;28;20203;-74
2022/05/10 02:03:13;;;;;;;18.60;12.83;;;;;;;-145.69;100.00;72194.44;5073041;28;20194;-75
2022/05/10 02:05:48;;;;;;;20.07;13.00;;;;;;;-145.69;100.00;72202.41;5072542;28;20218;-74
2022/05/10 02:08:22;;;;;;;21.20;12.23;;;;;;;-145.69;100.00;72206.38;5071891;28;20202;-75
2022/05/10 02:10:52;;;;;;;19.87;12.90;;;;;;;-145.69;100.00;72194.44;5072693;28;20198;-75
2022/05/10 02:13:25;;;;;;;23.20;13.83;;;;;;;-145.69;100.00;72188.47;5072940;28;20244;-75
2022/05/10 02:15:56;;;;;;;19.33;12.87;;;;;;;-145.69;100.00;72190.47;5072864;28;20198;-74
2022/05/10 02:18:27;;;;;;;28.33;13.20;;;;;;;-145.69;100.00;72186.47;5072741;28;20210;-74
2022/05/10 02:21:01;;;;;;;19.50;12.87;;;;;;;-145.69;100.00;72182.50;5072424;28;20190;-74
2022/05/10 02:23:32;;;;;;;24.43;13.67;;;;;;;-145.69;100.00;72182.50;5067957;28;20627;-75
2022/05/10 02:26:02;;;;;;;22.90;13.27;;;;;;;-145.69;100.00;72184.50;5052740;28;20228;-74
2022/05/10 02:28:39;;;;;;;24.93;13.90;;;;;;;-145.69;100.00;72186.47;5052709;28;20294;-74
2022/05/10 02:31:11;;;;;;;21.10;13.53;;;;;;;-145.69;100.00;72180.50;5052657;28;20199;-74
2022/05/10 02:33:37;;;;;;;20.77;13.20;;;;;;;-145.69;100.00;72184.50;5052541;28;20662;-74
2022/05/10 02:36:04;;;;;;;22.23;13.73;;;;;;;-145.69;100.00;72190.47;5066338;28;20256;-75
2022/05/10 02:38:33;;;;;;;23.50;14.30;;;;;;;-145.69;100.00;72192.44;5072555;28;20225;-75
2022/05/10 02:41:03;;;;;;;23.57;14.23;;;;;;;-145.69;100.00;72188.47;5072618;28;20202;-75
2022/05/10 02:43:32;;;;;;;20.43;13.87;;;;;;;-145.69;100.00;72196.44;5072623;28;20198;-75
2022/05/10 02:45:59;;;;;;;21.53;13.53;;;;;;;-145.69;100.00;72200.41;5072206;28;20685;-75
2022/05/10 02:48:30;;;;;;;23.10;14.00;;;;;;;-145.69;100.00;72204.38;5072317;28;20214;-75
2022/05/10 02:50:58;;;;;;;23.23;14.00;;;;;;;-145.69;100.00;72206.38;5072350;28;20198;-75
2022/05/10 02:53:24;;;;;;;24.33;14.30;;;;;;;-145.69;100.00;72202.41;5072459;28;20268;-75
2022/05/10 02:55:55;;;;;;;24.93;14.93;;;;;;;-145.69;100.00;72198.41;5073973;28;20210;-74
2022/05/10 02:58:30;;;;;;;23.30;14.50;;;;;;;-145.69;100.00;72200.41;5075817;28;20263;-74
2022/05/10 03:01:03;;;;;;;23.70;14.63;;;;;;;-145.69;100.00;72194.44;5055910;28;20199;-74
2022/05/10 03:03:33;;;;;;;21.13;13.83;;;;;;;-145.69;100.00;72202.41;5055961;28;20206;-74
2022/05/10 03:05:59;;;;;;;21.93;13.53;;;;;;;-145.69;100.00;72210.38;5056350;28;20227;-75
2022/05/10 03:08:26;;;;;;;20.40;14.23;;;;;;;-145.69;100.00;72216.34;5075602;28;20292;-75
2022/05/10 03:10:52;;;;;;;23.43;14.73;;;;;;;-145.69;100.00;72220.31;5075741;28;20595;-75
2022/05/10 03:13:19;;;;;;;22.43;14.87;;;;;;;-145.69;100.00;72218.31;5075437;28;20206;-74
2022/05/10 03:15:46;;;;;;;25.53;14.87;;;;;;;-145.69;100.00;72212.34;5075918;28;20213;-74
2022/05/10 03:18:12;;;;;;;25.00;15.57;;;;;;;-145.69;100.00;72210.38;5075896;28;20210;-75
2022/05/10 03:20:40;;;;;;;23.90;14.87;;;;;;;-145.69;100.00;72208.38;5075773;28;20199;-74
2022/05/10 03:23:06;;;;;;;27.13;15.67;;;;;;;-145.69;100.00;72188.47;5075202;28;20195;-74
2022/05/10 03:25:33;;;;;;;24.30;15.23;;;;;;;-145.69;100.00;72182.50;5075687;28;20198;-74
2022/05/10 03:28:00;;;;;;;24.83;14.30;;;;;;;-145.69;100.00;72186.47;5075354;28;20202;-75
2022/05/10 03:30:27;;;;;;;24.27;14.47;;;;;;;-145.69;100.00;72182.50;5075721;28;20209;-74
2022/05/10 03:32:54;;;;;;;22.07;14.73;;;;;;;-145.69;100.00;72186.47;5075759;28;20198;-75
2022/05/10 03:35:21;;;;;;;24.17;14.87;;;;;;;-145.69;100.00;72178.53;5075670;28;20195;-75
2022/05/10 03:37:52;;;;;;;21.27;13.53;;;;;;;-145.69;100.00;72190.47;5075574;28;20202;-74
2022/05/10 03:40:18;;;;;;;21.00;14.17;;;;;;;-145.69;100.00;72166.56;5075530;28;20221;-75
2022/05/10 03:42:46;;;;;;;25.73;14.87;;;;;;;-145.69;100.00;72154.63;5075337;28;20782;-75
2022/05/10 03:45:14;;;;;;;20.10;13.90;;;;;;;-145.69;100.00;72168.56;5075638;28;20203;-75
2022/05/10 03:47:41;;;;;;;21.37;13.77;;;;;;;-145.69;100.00;72170.56;5075266;28;20697;-75
2022/05/10 03:50:09;;;;;;;22.80;14.27;;;;;;;-145.69;100.00;72156.63;5075018;28;20631;-75
2022/05/10 03:52:36;;;;;;;22.90;14.40;;;;;;;-145.69;100.00;72156.63;5075217;28;20232;-75
2022/05/10 03:55:06;;;;;;;19.67;12.63;;;;;;;-145.69;100.00;72154.63;5074830;28;20203;-75
2022/05/10 03:57:32;;;;;;;21.60;14.13;;;;;;;-145.69;100.00;72154.63;5075301;28;20195;-75
2022/05/10 03:59:59;;;;;;;23.90;12.87;;;;;;;-145.69;100.00;72162.59;5075162;28;20336;-74
2022/05/10 04:02:25;;;;;;;21.23;13.17;;;;;;;-145.69;100.00;72174.53;5075073;28;20210;-75
2022/05/10 04:04:51;;;;;;;20.87;13.30;;;;;;;-145.69;100.00;72182.50;5074883;28;20201;-75
2022/05/10 04:07:18;;;;;;;20.50;13.67;;;;;;;-145.69;100.00;72156.63;5074160;28;20283;-75
2022/05/10 04:09:45;;;;;;;23.43;13.77;;;;;;;-145.69;100.00;72162.59;5074176;28;20195;-75
2022/05/10 04:12:13;;;;;;;19.83;13.17;;;;;;;-145.69;100.00;72166.56;5055099;28;20543;-75
2022/05/10 04:14:39;;;;;;;23.70;14.07;;;;;;;-145.69;100.00;72162.59;5054327;28;20650;-75
2022/05/10 04:17:06;;;;;;;20.30;12.90;;;;;;;-145.69;100.00;72170.56;5054488;28;20727;-75
2022/05/10 04:19:33;;;;;;;23.27;13.27;;;;;;;-145.69;100.00;72164.59;5054677;28;20202;-75
2022/05/10 04:21:59;;;;;;;21.57;13.07;;;;;;;-145.69;100.00;72166.56;5054454;28;20650;-75
2022/05/10 04:24:26;;;;;;;20.63;12.93;;;;;;;-145.69;100.00;72168.56;5054452;28;20207;-75
2022/05/10 04:26:52;;;;;;;23.53;13.97;;;;;;;-145.69;100.00;72164.59;5062761;28;20585;-75
2022/05/10 04:29:20;;;;;;;24.23;13.87;;;;;;;-145.69;100.00;72162.59;5074016;28;20203;-75
2022/05/10 04:31:46;;;;;;;27.00;13.40;;;;;;;-145.69;100.00;72142.69;5072328;28;20252;-75
2022/05/10 04:34:13;;;;;;;25.10;14.50;;;;;;;-145.69;100.00;72138.72;5074132;28;20210;-75
2022/05/10 04:36:39;;;;;;;25.73;13.77;;;;;;;-145.69;100.00;72136.72;5073934;28;20676;-75
2022/05/10 04:39:06;;;;;;;20.03;12.30;;;;;;;-145.69;100.00;72130.75;5074142;28;20649;-75
2022/05/10 04:41:35;;;;;;;20.60;13.30;;;;;;;-145.69;100.00;72136.72;5074334;28;20206;-75
2022/05/10 04:44:03;;;;;;;20.60;12.90;;;;;;;-145.69;100.00;72124.78;5074137;28;20213;-75
2022/05/10 04:46:32;;;;;;;20.60;12.10;;;;;;;-145.69;100.00;72118.81;5074077;28;20230;-75
2022/05/10 04:49:00;;;;;;;19.73;12.93;;;;;;;-145.69;100.00;72110.84;5073459;28;20231;-75
2022/05/10 04:51:26;;;;;;;22.50;12.70;;;;;;;-145.69;100.00;72104.88;5073939;28;20222;-75
2022/05/10 04:53:53;;;;;;;18.57;12.37;;;;;;;-145.69;100.00;72077.00;5073715;28;20581;-75
2022/05/10 04:56:19;;;;;;;20.90;12.47;;;;;;;-145.69;100.00;72051.16;5074069;28;20568;-75
2022/05/10 04:58:46;;;;;;;20.37;11.67;;;;;;;-145.69;100.00;72049.16;5073745;28;20656;-75
2022/05/10 05:01:15;;;;;;;18.60;11.60;;;;;;;-145.69;100.00;72033.22;5073606;28;20277;-75
2022/05/10 05:03:46;;;;;;;16.00;10.97;;;;;;;-145.69;100.00;72029.25;5073658;28;20195;-75
2022/05/10 05:06:12;;;;;;;16.70;10.57;;;;;;;-145.69;100.00;72017.31;5073524;28;20290;-75
2022/05/10 05:08:39;;;;;;;17.90;10.63;;;;;;;-145.69;100.00;71995.41;5073721;28;20203;-75
2022/05/10 05:11:06;;;;;;;18.67;10.77;;;;;;;-145.69;100.00;71989.44;5073446;28;20252;-75
2022/05/10 05:13:32;;;;;;;14.13;10.20;;;;;;;-145.69;100.00;71967.56;5073614;28;20211;-75
2022/05/10 05:15:59;;;;;;;13.60;9.80;;;;;;;-145.69;100.00;71959.59;5073134;28;20260;-75
2022/05/10 05:18:25;;;;;;;18.20;11.07;;;;;;;-145.69;100.00;71945.66;5072466;28;20214;-75
2022/05/10 05:20:53;;;;;;;15.70;10.33;;;;;;;-145.69;100.00;71939.69;5072868;28;20730;-75
2022/05/10 05:23:21;;;;;;;13.47;9.83;;;;;;;-145.69;100.00;71927.75;5073509;28;20203;-75
2022/05/10 05:25:49;;;;;;;15.13;9.90;;;;;;;-145.69;100.00;71911.84;5073358;28;20256;-75
2022/05/10 05:28:16;;;;;;;15.13;9.47;;;;;;;-145.69;100.00;71899.88;5073259;28;20632;-75
2022/05/10 05:30:44;;;;;;;14.90;9.67;;;;;;;-145.69;100.00;71885.97;5073218;28;20248;-75
2022/05/10 05:33:11;;;;;;;13.10;9.33;;;;;;;-145.69;100.00;71864.06;5072973;28;20645;-75
2022/05/10 05:35:38;;;;;;;15.80;9.43;;;;;;;-145.69;100.00;71840.19;5073387;28;20252;-75
2022/05/10 05:38:06;;;;;;;15.67;8.77;;;;;;;-145.69;100.00;71800.38;5073029;28;20661;-75
2022/05/10 05:40:34;;;;;;;15.43;8.90;;;;;;;-145.69;100.00;71774.50;5073245;28;20600;-75
2022/05/10 05:43:01;;;;;;;11.75;7.05;;;;;;;-145.69;100.00;71748.66;5073056;28;20203;-75
2022/05/10 05:45:28;;;;;;;12.70;8.05;;;;;;;-145.69;100.00;71730.72;5072732;28;20242;-75
2022/05/10 05:47:55;;;;;;;9.63;7.50;;;;;;;-145.69;100.00;71712.81;5073265;28;20307;-75
2022/05/10 05:50:25;;;;;;;11.18;7.78;;;;;;;-145.69;100.00;71694.91;5072520;28;20226;-75
2022/05/10 05:52:52;;;;;;;12.02;7.95;;;;;;;-145.69;100.00;71696.91;5073146;28;20228;-75
2022/05/10 05:55:21;;;;;;;12.93;8.05;;;;;;;-145.69;100.00;71669.03;5073070;28;20202;-75
2022/05/10 05:57:47;;;;;;;10.55;7.32;;;;;;;-145.69;100.00;71669.03;5073128;28;20199;-75
2022/05/10 06:00:18;;;;;;;9.70;6.70;;;;;;;-145.69;100.00;71657.09;5072958;28;20229;-75
2022/05/10 06:02:44;;;;;;;10.73;6.40;;;;;;;-145.69;100.00;71641.19;5072761;28;20653;-75
2022/05/10 06:05:11;;;;;;;11.27;6.60;;;;;;;-145.69;100.00;71625.25;5072811;28;20520;-75
2022/05/10 06:07:37;;;;;;;8.30;6.30;;;;;;;-145.69;100.00;71613.31;5072886;28;20226;-75
2022/05/10 06:10:05;;;;;;;11.65;6.35;;;;;;;-145.69;100.00;71605.38;5072798;28;20206;-75
2022/05/10 06:12:33;;;;;;;9.02;6.15;;;;;;;-145.69;100.00;71581.50;5072720;28;20207;-75
2022/05/10 06:15:00;;;;;;;11.65;5.43;;;;;;;-145.69;100.00;71553.63;5072813;28;20199;-75
2022/05/10 06:17:26;;;;;;;9.50;5.75;;;;;;;-145.69;100.00;71525.78;5072881;28;20201;-74
2022/05/10 06:19:53;;;;;;;9.48;5.95;;;;;;;-145.69;100.00;71474.03;5072392;28;20203;-74
2022/05/10 06:22:19;;;;;;;7.50;5.65;;;;;;;-145.69;100.00;71420.31;5072443;28;20191;-75
2022/05/10 06:24:46;;;;;;;7.60;5.20;;;;;;;-145.69;100.00;71370.56;5072739;28;20221;-75
2022/05/10 06:27:16;;;;;;;6.68;4.32;;;;;;;-145.69;100.00;71334.75;5072450;28;20237;-75
2022/05/10 06:29:45;;;;;;;6.20;4.38;;;;;;;-145.69;96.49;71241.22;5066883;28;20196;-75
2022/05/10 06:32:12;;;;;;;6.45;4.35;;;;;;;-145.69;92.53;71167.59;5056462;28;20195;-75
2022/05/10 06:34:41;;;;;;;7.32;4.75;;;;;;;-145.69;92.22;71171.56;5056693;28;20210;-76
2022/05/10 06:38:16;;;;;;;5.88;4.25;;;;;;;-145.69;92.24;71151.69;5067269;28;20653;-75
2022/05/10 06:40:05;;;;;;;8.80;4.70;;;;;;;-145.69;89.46;71139.75;5076227;28;20261;-75
2022/05/10 06:42:32;;;;;;;7.40;4.90;;;;;;;-145.69;87.18;71157.66;5076274;28;20198;-75
2022/05/10 06:45:00;;;;;;;6.85;4.47;;;;;;;-145.69;88.00;71149.69;5076024;28;20564;-75
2022/05/10 06:47:26;;;;;;;9.02;5.00;;;;;;;-145.69;91.12;71161.63;5076288;28;20230;-75
2022/05/10 06:49:53;;;;;;;6.45;4.82;;;;;;;-145.69;88.39;71117.84;5075651;28;20227;-74
2022/05/10 06:52:19;;;;;;;7.97;5.60;;;;;;;-145.69;84.32;71088.00;5076289;28;20252;-75
2022/05/10 06:54:47;;;;;;;7.88;5.53;;;;;;;-145.69;81.94;71119.84;5076284;28;20203;-74
2022/05/10 06:57:13;;;;;;;6.28;4.82;;;;;;;-145.69;86.14;71177.53;5076317;28;20264;-74
2022/05/10 06:59:39;;;;;;;8.80;5.88;;;;;;;-145.69;90.57;71205.41;5076222;28;20237;-74
2022/05/10 07:02:07;;;;;;;9.43;6.32;;;;;;;-145.69;92.61;71223.31;5075734;28;20206;-75
2022/05/10 07:04:34;;;;;;;8.23;6.07;;;;;;;-145.69;92.22;71197.44;5075901;28;20619;-75
2022/05/10 07:07:00;;;;;;;6.65;5.60;;;;;;;-145.69;89.80;71215.34;5076327;28;20230;-74
2022/05/10 07:09:26;;;;;;;7.82;5.38;;;;;;;-145.69;91.94;71211.38;5076123;28;20235;-74
2022/05/10 07:11:53;;;;;;;8.38;5.43;;;;;;;-145.69;86.62;71205.41;5075980;28;20272;-74
2022/05/10 07:14:20;;;;;;;8.48;4.82;;;;;;;-145.69;84.68;71129.78;5075656;28;20248;-75
2022/05/10 07:16:46;;;;;;;7.72;5.85;;;;;;;-145.69;79.77;71093.97;5075873;28;20260;-75
2022/05/10 07:19:14;;;;;;;7.18;5.20;;;;;;;-145.69;74.70;71068.13;5075609;28;20191;-75
2022/05/10 07:21:40;;;;;;;8.07;5.15;;;;;;;-145.69;75.50;71084.03;5076005;28;20257;-75
2022/05/10 07:24:07;;;;;;;7.50;4.35;;;;;;;-145.69;73.01;71044.22;5075731;28;20199;-74
2022/05/10 07:26:33;;;;;;;7.03;5.35;;;;;;;-145.69;74.81;71064.13;5075661;28;20252;-75
2022/05/10 07:29:00;;;;;;;6.57;4.80;;;;;;;-145.69;69.28;71103.94;5075599;28;20283;-74
2022/05/10 07:31:26;;;;;;;6.15;4.97;;;;;;;-145.69;72.04;71076.06;5075621;28;20604;-75
2022/05/10 07:33:53;;;;;;;7.03;4.97;;;;;;;-145.69;71.25;71016.38;5075170;28;20194;-75
2022/05/10 07:36:33;;;;;;;8.50;4.68;;;;;;;-145.69;70.17;71020.34;5075704;28;20207;-74
2022/05/10 07:39:00;;;;;;;6.95;5.10;;;;;;;-145.69;67.21;71040.25;5075640;28;20563;-75
2022/05/10 07:41:27;;;;;;;5.97;4.47;;;;;;;-145.69;67.12;71040.25;5074835;28;20649;-75
2022/05/10 07:43:54;;;;;;;7.85;4.80;;;;;;;-145.69;72.41;71000.47;5074603;28;20195;-75
2022/05/10 07:46:20;;;;;;;6.32;4.60;;;;;;;-145.69;70.54;70960.66;5075192;28;20206;-76
2022/05/10 07:48:47;;;;;;;4.60;3.80;;;;;;;-145.69;69.54;70976.59;5075220;28;20230;-75
2022/05/10 07:51:14;;;;;;;8.65;5.00;;;;;;;-145.69;69.67;71004.44;5074989;28;20718;-75
2022/05/10 07:53:42;;;;;;;5.75;4.60;;;;;;;-145.69;69.10;70978.56;5075295;28;20202;-76
2022/05/10 07:56:09;;;;;;;7.38;4.75;;;;;;;-145.69;64.00;70926.84;5075467;28;20209;-75
2022/05/10 07:58:36;;;;;;;7.38;4.32;;;;;;;-145.69;69.36;70912.91;5075143;28;20202;-75
2022/05/10 08:01:03;;;;;;;12.25;5.28;;;;;;;-145.69;70.08;70908.94;5074943;28;20206;-75
2022/05/10 08:03:30;;;;;;;7.93;4.22;;;;;;;-145.69;65.01;70916.91;5075186;28;20535;-75
2022/05/10 08:05:59;;;;;;;9.88;4.55;;;;;;;-145.69;67.77;70893.03;5074419;28;20248;-75
2022/05/10 08:08:26;;;;;;;8.25;4.45;;;;;;;-145.69;61.44;70916.91;5074956;28;20227;-75
2022/05/10 08:10:55;;;;;;;8.52;4.30;;;;;;;-145.69;61.35;70932.81;5074523;28;20245;-75
2022/05/10 08:13:24;;;;;;;6.00;3.80;;;;;;;-145.69;60.49;70946.75;5074737;28;20203;-75
2022/05/10 08:15:51;;;;;;;5.38;4.10;;;;;;;-145.69;58.89;70902.97;5074962;28;20599;-76
2022/05/10 08:18:19;;;;;;;6.07;4.32;;;;;;;-145.69;62.34;70873.13;5074612;28;20198;-74
2022/05/10 08:20:46;;;;;;;6.75;4.60;;;;;;;-145.69;62.59;70857.22;5074945;28;20261;-75
2022/05/10 08:23:16;;;;;;;7.60;4.40;;;;;;;-145.69;59.96;70879.09;5072787;28;20596;-76
2022/05/10 08:25:43;;;;;;;5.63;4.10;;;;;;;-145.69;60.91;70875.13;5055613;28;20245;-75
2022/05/10 08:28:13;;;;;;;9.55;4.60;;;;;;;-145.69;62.55;70865.16;5054006;28;20235;-75
2022/05/10 08:30:40;;;;;;;7.78;4.70;;;;;;;-145.69;62.92;70928.84;5054066;28;20390;-76
2022/05/10 08:33:06;;;;;;;10.93;4.43;;;;;;;-145.69;60.13;70974.59;5054223;28;20678;-75
2022/05/10 08:35:33;;;;;;;6.22;4.63;;;;;;;-145.69;65.35;70930.81;5063214;28;20195;-75
2022/05/10 08:37:59;;;;;;;9.38;4.68;;;;;;;-145.69;63.51;70879.09;5074405;28;20210;-76
2022/05/10 08:40:30;;;;;;;5.55;4.38;;;;;;;-145.69;62.09;70885.06;5074186;28;20256;-75
2022/05/10 08:43:01;;;;;;;5.60;4.05;;;;;;;-145.69;60.95;70853.22;5074244;28;20213;-76
2022/05/10 08:45:31;;;;;;;9.82;4.70;;;;;;;-145.69;60.29;70883.06;5072188;28;20664;-75
2022/05/10 08:47:58;;;;;;;8.95;5.10;;;;;;;-145.69;60.26;70865.16;5072575;28;20227;-75
2022/05/10 08:50:24;;;;;;;6.93;4.82;;;;;;;-145.69;61.88;70849.25;5072998;28;20222;-75
2022/05/10 08:52:52;;;;;;;6.35;4.90;;;;;;;-145.69;62.44;70904.97;5073353;28;20657;-76
2022/05/10 08:55:22;;;;;;;7.32;5.05;;;;;;;-145.69;62.91;70908.94;5072776;28;20202;-75
2022/05/10 08:57:51;;;;;;;12.27;5.38;;;;;;;-145.69;59.99;70893.03;5073738;28;20229;-75
2022/05/10 09:00:27;;;;;;;13.25;5.10;;;;;;;-145.69;59.11;70869.16;5073849;28;20206;-75
2022/05/10 09:02:58;;;;;;;14.73;4.93;;;;;;;-145.69;62.02;70859.19;5074122;28;20289;-75
2022/05/10 09:05:31;;;;;;;7.05;4.35;;;;;;;-145.69;58.21;70825.38;5074025;28;20199;-75
2022/05/10 09:08:08;;;;;;;6.38;4.82;;;;;;;-145.69;59.00;70841.28;5073686;28;20275;-75
2022/05/10 09:10:41;;;;;;;8.00;4.10;;;;;;;-145.69;58.39;70797.53;5074095;28;20194;-75
2022/05/10 09:13:11;;;;;;;5.30;4.03;;;;;;;-145.69;61.25;70811.44;5073733;28;20289;-76
2022/05/10 09:15:39;;;;;;;8.25;4.60;;;;;;;-145.69;57.67;70769.66;5073603;28;20234;-75
2022/05/10 09:18:10;;;;;;;7.40;4.15;;;;;;;-145.69;54.66;70829.34;5073487;28;20240;-75
2022/05/10 09:20:45;;;;;;;8.18;4.13;;;;;;;-145.69;53.30;70867.16;5073711;28;20217;-75
2022/05/10 09:23:22;;;;;;;6.47;4.35;;;;;;;-145.69;56.28;70817.41;5073628;28;20244;-75
2022/05/10 09:25:49;;;;;;;5.53;4.10;;;;;;;-145.69;54.81;70781.59;5073614;28;20195;-75
2022/05/10 09:28:21;;;;;;;6.95;4.18;;;;;;;-145.69;56.57;70773.66;5073295;28;20252;-76
2022/05/10 09:36:24;;;;;;;5.93;3.70;;;;;;;-145.69;53.09;70797.53;5073419;28;20671;-75
2022/05/10 09:38:51;;;;;;;5.53;3.80;;;;;;;-145.69;53.24;70811.44;5073151;28;20604;-76
2022/05/10 09:41:32;;;;;;;7.03;3.90;;;;;;;-145.69;53.88;70813.44;5072854;28;20665;-76
2022/05/10 09:44:15;;;;;;;6.38;3.95;;;;;;;-145.69;54.98;70759.72;5072866;28;20195;-75
2022/05/10 09:46:42;;;;;;;5.32;3.53;;;;;;;-145.69;51.95;70779.63;5072955;28;20195;-75
2022/05/10 09:49:30;;;;;;;6.05;3.70;;;;;;;-145.69;49.83;70781.59;5072753;28;20243;-75
2022/05/10 09:51:58;;;;;;;7.88;4.18;;;;;;;-145.69;49.50;70817.41;5073238;28;20210;-75
2022/05/10 09:54:34;;;;;;;5.45;3.42;;;;;;;-145.69;53.63;70801.50;5073139;28;20206;-74
2022/05/10 09:57:00;;;;;;;4.13;3.33;;;;;;;-145.69;52.20;70781.59;5067178;28;20213;-76
2022/05/10 09:59:29;;;;;;;5.65;3.22;;;;;;;-145.69;52.17;70805.47;5052830;28;20203;-76
2022/05/10 10:01:58;;;;;;;5.68;3.40;;;;;;;-145.69;50.98;70773.66;5061936;28;20194;-76
2022/05/10 10:04:31;;;;;;;7.72;3.45;;;;;;;-145.69;53.36;70763.69;5072796;28;20197;-75
2022/05/10 10:07:07;;;;;;;4.35;3.50;;;;;;;-145.69;52.88;70745.78;5072689;28;20289;-75
2022/05/10 10:09:37;;;;;;;5.20;3.55;;;;;;;-145.69;51.11;70717.94;5072817;28;20222;-75
2022/05/10 10:12:05;;;;;;;6.60;3.40;;;;;;;-145.69;53.61;70715.94;5072828;28;20248;-75
2022/05/10 10:14:41;;;;;;;4.15;2.85;;;;;;;-145.69;50.21;70678.16;5072536;28;20268;-75
2022/05/10 10:17:18;;;;;;;6.45;3.63;;;;;;;-145.69;52.93;70664.22;5072778;28;20206;-75
2022/05/10 10:19:52;;;;;;;4.03;2.90;;;;;;;-145.69;46.82;70650.28;5072560;28;20275;-75
2022/05/10 10:22:30;;;;;;;8.63;3.10;;;;;;;-145.69;46.64;70628.41;5072389;28;20659;-75
2022/05/10 10:25:02;;;;;;;4.32;2.90;;;;;;;-145.69;48.27;70644.31;5072970;28;20193;-75
2022/05/10 10:27:34;;;;;;;5.50;3.42;;;;;;;-145.69;57.42;70618.47;5072608;28;20293;-76
2022/05/10 10:30:06;;;;;;;4.05;2.67;;;;;;;-145.69;43.71;70670.19;5072140;28;20321;-75
2022/05/10 10:32:38;;;;;;;3.88;2.42;;;;;;;-145.69;43.36;70626.41;5057912;28;20218;-75
2022/05/10 10:35:13;;;;;;;4.13;2.83;;;;;;;-145.69;46.36;70606.53;5052403;28;20658;-76
2022/05/10 10:37:44;;;;;;;8.00;3.20;;;;;;;-145.69;40.52;70670.19;5052521;28;20207;-75
2022/05/10 10:40:27;;;;;;;3.45;2.15;;;;;;;-145.69;40.78;70628.41;5052562;28;20203;-75
2022/05/10 10:42:58;;;;;;;4.00;2.72;;;;;;;-145.69;41.52;70584.66;5052674;28;20231;-75
2022/05/10 10:45:36;;;;;;;5.28;2.30;;;;;;;-145.69;47.25;70526.94;5063266;28;20206;-76
2022/05/10 10:48:15;;;;;;;3.55;2.13;;;;;;;-145.69;38.14;70548.84;5072448;28;20750;-75
2022/05/10 10:50:43;;;;;;;3.33;2.47;;;;;;;-145.69;41.86;70517.00;5072279;28;20273;-75
2022/05/10 10:53:12;;;;;;;1.90;1.67;;;;;;;-145.69;36.55;70507.06;5072383;28;20198;-76
2022/05/10 10:55:53;;;;;;;3.65;1.90;;;;;;;-145.69;36.17;70475.22;5072423;28;20248;-76
2022/05/10 10:58:30;;;;;;;5.13;2.65;;;;;;;-145.69;42.28;70475.22;5072211;28;20599;-76
2022/05/10 11:01:11;;;;;;;2.72;1.95;;;;;;;-145.69;40.76;70481.19;5072440;28;20278;-76
2022/05/10 11:03:50;;;;;;;3.85;2.30;;;;;;;-145.69;42.54;70475.22;5072366;28;20476;-75
2022/05/10 11:06:30;;;;;;;4.72;2.78;;;;;;;-145.69;43.06;70475.22;5072247;28;20608;-76
2022/05/10 11:09:06;;;;;;;2.83;2.10;;;;;;;-145.69;46.86;70471.25;5072373;28;20223;-76
2022/05/10 11:11:44;;;;;;;3.13;2.15;;;;;;;-145.69;38.01;70526.94;5071816;28;20209;-76
2022/05/10 11:14:35;;;;;;;4.07;2.50;;;;;;;-145.69;39.75;70530.94;5052222;28;20203;-76
2022/05/10 11:17:10;;;;;;;3.20;2.10;;;;;;;-145.69;39.15;70497.09;5053873;28;20681;-75
2022/05/10 11:20:13;;;;;;;2.50;2.05;;;;;;;-145.69;35.63;70455.34;5055995;28;20199;-75
2022/05/10 11:22:46;;;;;;;2.85;2.20;;;;;;;-145.69;39.70;70447.38;5023784;28;20207;-77
2022/05/10 11:25:25;;;;;;;3.35;2.30;;;;;;;-145.69;39.98;70475.22;5055663;28;20245;-75